createdAt,value
2023-03-08T00:00:35.817Z,1.85
2023-03-08T00:03:03.985Z,2.00
2023-03-08T00:05:30.888Z,2.13
2023-03-08T00:07:58.045Z,2.05
2023-03-08T00:10:25.278Z,1.92
2023-03-08T00:12:52.359Z,1.83
2023-03-08T00:15:19.528Z,2.10
2023-03-08T00:17:46.418Z,2.13
2023-03-08T00:20:14.207Z,2.08
2023-03-08T00:22:42.287Z,2.05
2023-03-08T00:25:11.003Z,2.60
2023-03-08T00:27:38.638Z,2.22
2023-03-08T00:30:06.683Z,1.83
2023-03-08T00:32:33.783Z,1.77
2023-03-08T00:35:00.724Z,2.20
2023-03-08T00:37:27.806Z,2.25
2023-03-08T00:39:54.994Z,1.98
2023-03-08T00:42:22.766Z,2.10
2023-03-08T00:44:49.992Z,2.20
2023-03-08T00:47:17.298Z,2.22
2023-03-08T00:49:45.034Z,2.10
2023-03-08T00:52:12.017Z,2.35
2023-03-08T00:54:39.019Z,2.28
2023-03-08T00:57:06.217Z,2.30
2023-03-08T00:59:33.272Z,2.45
2023-03-08T01:02:01.085Z,2.33
2023-03-08T01:04:28.345Z,2.50
2023-03-08T01:06:55.376Z,2.45
2023-03-08T01:09:22.334Z,2.72
2023-03-08T01:11:49.149Z,2.40
2023-03-08T01:14:16.173Z,2.67
2023-03-08T01:16:43.254Z,2.03
2023-03-08T01:19:11.304Z,2.42
2023-03-08T01:21:38.649Z,2.60
2023-03-08T01:24:06.198Z,2.50
2023-03-08T01:26:33.158Z,2.13
2023-03-08T01:29:01.322Z,2.65
2023-03-08T01:31:30.088Z,2.60
2023-03-08T01:33:58.253Z,2.53
2023-03-08T01:36:27.011Z,2.20
2023-03-08T01:38:54.328Z,2.55
2023-03-08T01:41:29.058Z,2.65
2023-03-08T01:46:33.038Z,2.40
2023-03-08T01:49:23.071Z,2.65
2023-03-08T01:52:07.282Z,2.50
2023-03-08T01:54:57.493Z,2.37
2023-03-08T01:57:39.085Z,3.30
2023-03-08T02:00:10.164Z,2.72
2023-03-08T02:02:59.863Z,2.67
2023-03-08T02:05:27.461Z,2.67
2023-03-08T02:07:54.370Z,3.33
2023-03-08T02:10:21.675Z,3.00
2023-03-08T02:12:49.030Z,3.10
2023-03-08T02:15:20.340Z,3.10
2023-03-08T02:17:48.130Z,3.08
2023-03-08T02:20:28.231Z,3.45
2023-03-08T02:22:55.237Z,2.80
2023-03-08T02:25:25.174Z,3.22
2023-03-08T02:27:54.194Z,3.22
2023-03-08T02:30:29.386Z,2.92
2023-03-08T02:32:56.374Z,2.97
2023-03-08T02:35:23.378Z,2.85
2023-03-08T02:37:50.514Z,2.90
2023-03-08T02:40:17.545Z,2.90
2023-03-08T02:42:44.536Z,2.75
2023-03-08T02:45:11.648Z,3.05
2023-03-08T02:47:38.792Z,3.20
2023-03-08T02:50:06.516Z,3.05
2023-03-08T02:52:33.508Z,2.88
2023-03-08T02:55:00.539Z,3.03
2023-03-08T02:57:27.512Z,2.88
2023-03-08T02:59:54.480Z,3.08
2023-03-08T03:02:21.491Z,3.05
2023-03-08T03:04:48.316Z,2.92
2023-03-08T03:07:15.362Z,3.20
2023-03-08T03:09:42.317Z,2.78
2023-03-08T03:12:09.383Z,3.20
2023-03-08T03:14:36.404Z,3.17
2023-03-08T03:17:03.619Z,3.08
2023-03-08T03:19:30.506Z,2.63
2023-03-08T03:21:57.504Z,2.95
2023-03-08T03:24:24.710Z,2.60
2023-03-08T03:26:51.829Z,2.65
2023-03-08T03:29:18.869Z,2.83
2023-03-08T03:31:46.321Z,2.65
2023-03-08T03:34:13.078Z,2.70
2023-03-08T03:36:40.084Z,2.60
2023-03-08T03:39:07.133Z,2.72
2023-03-08T03:41:34.109Z,2.72
2023-03-08T03:44:01.084Z,2.88
2023-03-08T03:46:27.913Z,2.72
2023-03-08T03:48:54.854Z,2.60
2023-03-08T03:51:23.250Z,2.75
2023-03-08T03:53:50.520Z,2.65
2023-03-08T03:56:23.589Z,2.95
2023-03-08T03:58:51.657Z,3.00
2023-03-08T04:01:28.694Z,3.10
2023-03-08T04:03:57.342Z,2.90
2023-03-08T04:06:25.663Z,2.80
2023-03-08T04:08:54.277Z,2.83
2023-03-08T04:11:26.034Z,2.20
2023-03-08T04:13:53.205Z,2.88
2023-03-08T04:16:31.809Z,2.67
2023-03-08T04:19:04.127Z,2.63
2023-03-08T04:21:31.415Z,2.95
2023-03-08T04:24:00.703Z,3.20
2023-03-08T04:26:28.091Z,2.70
2023-03-08T04:28:56.578Z,2.78
2023-03-08T04:31:28.905Z,2.45
2023-03-08T04:33:56.025Z,2.50
2023-03-08T04:36:23.470Z,2.78
2023-03-08T04:38:51.140Z,2.90
2023-03-08T04:41:18.783Z,2.40
2023-03-08T04:43:48.898Z,2.50
2023-03-08T04:46:17.287Z,2.85
2023-03-08T04:48:44.855Z,2.22
2023-03-08T04:51:13.512Z,2.58
2023-03-08T04:53:41.751Z,2.70
2023-03-08T04:56:09.268Z,2.10
2023-03-08T04:58:37.321Z,2.60
2023-03-08T05:01:16.441Z,1.80
2023-03-08T05:03:43.840Z,2.20
2023-03-08T05:06:11.631Z,2.28
2023-03-08T05:08:38.563Z,2.55
2023-03-08T05:11:05.951Z,2.30
2023-03-08T05:13:35.756Z,2.60
2023-03-08T05:16:04.396Z,2.33
2023-03-08T05:18:31.606Z,1.90
2023-03-08T05:21:03.940Z,2.05
2023-03-08T05:23:31.461Z,2.60
2023-03-08T05:26:00.480Z,2.40
2023-03-08T05:28:29.614Z,1.95
2023-03-08T05:31:08.716Z,2.50
2023-03-08T05:33:36.517Z,2.45
2023-03-08T05:36:04.215Z,2.08
2023-03-08T05:38:31.464Z,2.60
2023-03-08T05:41:02.649Z,2.00
2023-03-08T05:43:29.585Z,2.75
2023-03-08T05:46:03.296Z,2.00
2023-03-08T05:48:31.550Z,1.60
2023-03-08T05:50:58.793Z,2.28
2023-03-08T05:53:26.086Z,2.35
2023-03-08T05:55:52.957Z,2.53
2023-03-08T05:58:22.848Z,2.40
2023-03-08T06:00:49.646Z,2.33
2023-03-08T06:03:16.668Z,2.40
2023-03-08T06:05:43.621Z,1.90
2023-03-08T06:08:10.594Z,1.88
2023-03-08T06:10:37.587Z,2.38
2023-03-08T06:13:04.630Z,1.92
2023-03-08T06:15:31.351Z,2.22
2023-03-08T06:17:58.166Z,1.77
2023-03-08T06:20:24.990Z,1.88
2023-03-08T06:22:51.964Z,2.08
2023-03-08T06:25:20.759Z,2.53
2023-03-08T06:27:47.898Z,2.10
2023-03-08T06:30:14.889Z,2.17
2023-03-08T06:32:43.132Z,2.60
2023-03-08T06:35:10.343Z,2.30
2023-03-08T06:37:37.454Z,2.58
2023-03-08T06:40:05.922Z,1.83
2023-03-08T06:42:41.075Z,2.15
2023-03-08T06:45:09.939Z,2.25
2023-03-08T06:47:36.763Z,1.90
2023-03-08T06:50:03.998Z,2.00
2023-03-08T06:52:37.791Z,2.10
2023-03-08T06:55:05.605Z,1.97
2023-03-08T06:57:33.016Z,2.05
2023-03-08T06:59:59.972Z,2.20
2023-03-08T07:02:26.802Z,1.92
2023-03-08T07:04:53.756Z,2.05
2023-03-08T07:07:22.929Z,2.60
2023-03-08T07:09:49.941Z,1.60
2023-03-08T07:12:16.800Z,1.98
2023-03-08T07:14:43.580Z,1.92
2023-03-08T07:17:10.534Z,2.05
2023-03-08T07:19:37.558Z,2.03
2023-03-08T07:22:04.354Z,2.10
2023-03-08T07:24:31.275Z,2.20
2023-03-08T07:26:58.315Z,1.88
2023-03-08T07:29:25.102Z,2.03
2023-03-08T07:31:51.985Z,2.15
2023-03-08T07:34:18.924Z,2.00
2023-03-08T07:36:45.795Z,1.80
2023-03-08T07:39:12.850Z,1.92
2023-03-08T07:41:39.732Z,2.15
2023-03-08T07:44:06.610Z,2.10
2023-03-08T07:46:33.645Z,2.10
2023-03-08T07:49:00.884Z,2.00
2023-03-08T07:51:27.583Z,1.98
2023-03-08T07:53:54.644Z,2.15
2023-03-08T07:56:21.593Z,1.80
2023-03-08T07:58:48.570Z,1.67
2023-03-08T08:01:15.618Z,1.80
2023-03-08T08:03:42.800Z,1.38
2023-03-08T08:06:10.203Z,1.83
2023-03-08T08:08:37.261Z,1.92
2023-03-08T08:11:11.636Z,2.08
2023-03-08T08:13:38.634Z,1.70
2023-03-08T08:16:07.403Z,1.75
2023-03-08T08:18:35.758Z,1.70
2023-03-08T08:21:05.658Z,1.88
2023-03-08T08:23:33.299Z,1.50
2023-03-08T08:26:00.598Z,1.90
2023-03-08T08:28:28.012Z,1.55
2023-03-08T08:31:10.616Z,2.13
2023-03-08T08:33:37.844Z,1.50
2023-03-08T08:36:09.434Z,1.95
2023-03-08T08:38:36.534Z,2.00
2023-03-08T08:41:05.450Z,1.70
2023-03-08T08:43:34.679Z,1.50
2023-03-08T08:46:02.690Z,1.90
2023-03-08T08:48:29.914Z,1.52
2023-03-08T08:50:58.810Z,1.80
2023-03-08T08:53:26.061Z,1.65
2023-03-08T08:55:53.121Z,1.92
2023-03-08T08:58:20.326Z,1.55
2023-03-08T09:00:48.522Z,1.60
2023-03-08T09:03:15.642Z,1.77
2023-03-08T09:05:45.021Z,1.70
2023-03-08T09:08:13.444Z,1.75
2023-03-08T09:10:42.405Z,2.00
2023-03-08T09:13:09.513Z,1.90
2023-03-08T09:15:37.584Z,1.63
2023-03-08T09:18:05.920Z,1.80
2023-03-08T09:20:32.867Z,1.90
2023-03-08T09:22:59.897Z,1.85
2023-03-08T09:25:26.893Z,1.63
2023-03-08T09:27:53.869Z,1.85
2023-03-08T09:30:21.170Z,1.92
2023-03-08T09:32:48.210Z,1.70
2023-03-08T09:35:15.788Z,1.58
2023-03-08T09:37:43.431Z,1.60
2023-03-08T09:40:20.489Z,1.83
2023-03-08T09:42:47.643Z,1.63
2023-03-08T09:45:27.375Z,1.50
2023-03-08T09:48:05.034Z,1.45
2023-03-08T09:50:47.006Z,1.85
2023-03-08T09:53:18.565Z,1.90
2023-03-08T09:55:51.775Z,1.80
2023-03-08T09:58:33.683Z,1.50
2023-03-08T10:01:16.333Z,1.60
2023-03-08T10:03:43.192Z,1.70
2023-03-08T10:06:54.702Z,1.60
2023-03-08T10:09:27.289Z,1.50
2023-03-08T10:12:23.153Z,1.38
2023-03-08T10:14:54.821Z,1.50
2023-03-08T10:17:26.311Z,1.70
2023-03-08T10:19:58.921Z,1.70
2023-03-08T10:22:32.171Z,1.45
2023-03-08T10:25:16.291Z,1.35
2023-03-08T10:27:43.269Z,1.95
2023-03-08T10:30:19.830Z,1.17
2023-03-08T10:32:49.877Z,1.40
2023-03-08T10:35:18.591Z,1.20
2023-03-08T10:37:51.851Z,1.52
2023-03-08T10:40:22.156Z,1.33
2023-03-08T10:43:07.462Z,1.63
2023-03-08T10:45:35.102Z,1.70
2023-03-08T10:48:04.279Z,1.35
2023-03-08T10:50:36.822Z,1.40
2023-03-08T10:53:20.009Z,1.67
2023-03-08T10:55:50.748Z,1.15
2023-03-08T10:58:35.016Z,1.13
2023-03-08T11:01:24.292Z,1.13
2023-03-08T11:04:03.307Z,1.60
2023-03-08T11:06:30.690Z,1.42
2023-03-08T11:09:00.309Z,1.20
2023-03-08T11:11:27.797Z,1.30
2023-03-08T11:13:55.629Z,1.23
2023-03-08T11:17:00.265Z,1.40
2023-03-08T11:19:32.656Z,1.30
2023-03-08T11:22:28.958Z,1.67
2023-03-08T11:25:29.771Z,1.40
2023-03-08T11:28:15.345Z,1.15
2023-03-08T11:31:03.413Z,1.20
2023-03-08T11:33:37.224Z,1.25
2023-03-08T11:36:21.426Z,1.40
2023-03-08T11:38:59.692Z,1.48
2023-03-08T11:41:26.782Z,1.48
2023-03-08T11:44:20.939Z,1.40
2023-03-08T11:47:21.442Z,1.60
2023-03-08T11:49:59.445Z,1.30
2023-03-08T11:53:04.745Z,1.50
2023-03-08T11:56:02.955Z,1.27
2023-03-08T11:58:49.321Z,1.30
2023-03-08T12:01:29.245Z,1.40
2023-03-08T12:04:06.618Z,1.08
2023-03-08T12:06:41.503Z,1.20
2023-03-08T12:11:51.666Z,1.38
2023-03-08T12:14:26.407Z,1.02
2023-03-08T12:17:32.845Z,1.40
2023-03-08T12:19:59.826Z,1.40
2023-03-08T12:22:42.210Z,1.20
2023-03-08T12:25:23.094Z,1.40
2023-03-08T12:27:52.563Z,1.58
2023-03-08T12:30:37.789Z,1.48
2023-03-08T12:33:06.947Z,1.40
2023-03-08T12:35:37.100Z,1.40
2023-03-08T12:38:18.755Z,1.60
2023-03-08T12:40:51.196Z,1.30
2023-03-08T12:43:20.980Z,1.40
2023-03-08T12:46:00.126Z,1.30
2023-03-08T12:48:32.153Z,0.88
2023-03-08T12:51:22.298Z,1.30
2023-03-08T12:53:49.347Z,1.40
2023-03-08T12:56:21.451Z,1.45
2023-03-08T12:58:53.322Z,1.48
2023-03-08T13:01:43.229Z,1.52
2023-03-08T13:04:39.807Z,1.35
2023-03-08T13:07:40.336Z,1.33
2023-03-08T13:10:22.853Z,1.40
2023-03-08T13:12:52.588Z,1.10
2023-03-08T13:15:24.024Z,1.20
2023-03-08T13:18:08.236Z,1.83
2023-03-08T13:20:41.934Z,1.33
2023-03-08T13:23:14.879Z,1.33
2023-03-08T13:25:41.824Z,1.73
2023-03-08T13:28:20.079Z,1.17
2023-03-08T13:30:57.889Z,1.00
2023-03-08T13:33:37.418Z,1.60
2023-03-08T13:36:14.662Z,1.30
2023-03-08T13:38:41.865Z,1.45
2023-03-08T13:41:08.899Z,1.55
2023-03-08T13:43:36.569Z,1.60
2023-03-08T13:46:16.818Z,1.00
2023-03-08T13:48:45.094Z,1.23
2023-03-08T13:51:19.168Z,1.33
2023-03-08T13:53:46.918Z,1.15
2023-03-08T13:56:26.128Z,1.30
2023-03-08T13:58:57.001Z,1.15
2023-03-08T14:01:26.471Z,1.00
2023-03-08T14:03:55.621Z,1.38
2023-03-08T14:06:34.037Z,1.30
2023-03-08T14:09:03.926Z,1.55
2023-03-08T14:11:42.504Z,1.15
2023-03-08T14:14:20.388Z,1.30
2023-03-08T14:16:47.685Z,1.30
2023-03-08T14:19:14.607Z,1.20
2023-03-08T14:21:53.378Z,1.25
2023-03-08T14:24:26.181Z,1.20
2023-03-08T14:27:06.813Z,1.20
2023-03-08T14:29:35.526Z,1.10
2023-03-08T14:32:11.941Z,0.80
2023-03-08T14:34:49.502Z,1.13
2023-03-08T14:37:31.136Z,1.10
2023-03-08T14:40:25.847Z,1.30
2023-03-08T14:42:56.174Z,1.10
2023-03-08T14:45:24.801Z,0.98
2023-03-08T14:47:55.810Z,1.10
2023-03-08T14:50:33.813Z,0.95
2023-03-08T14:53:02.617Z,1.35
2023-03-08T14:55:33.156Z,1.17
2023-03-08T14:58:13.209Z,0.88
2023-03-08T15:00:54.905Z,0.82
2023-03-08T15:03:21.926Z,1.27
2023-03-08T15:05:48.982Z,0.98
2023-03-08T15:08:17.852Z,1.05
2023-03-08T15:10:45.136Z,0.82
2023-03-08T15:13:15.119Z,1.02
2023-03-08T15:15:43.030Z,1.08
2023-03-08T15:18:10.258Z,1.30
2023-03-08T15:20:46.857Z,1.23
2023-03-08T15:23:31.169Z,1.20
2023-03-08T15:25:59.504Z,1.00
2023-03-08T15:28:27.048Z,1.08
2023-03-08T15:30:54.957Z,1.23
2023-03-08T15:33:23.041Z,1.23
2023-03-08T15:35:50.586Z,1.50
2023-03-08T15:38:19.184Z,0.90
2023-03-08T15:40:46.093Z,1.02
2023-03-08T15:43:13.249Z,1.27
2023-03-08T15:45:41.166Z,1.27
2023-03-08T15:48:13.295Z,1.27
2023-03-08T15:50:40.362Z,1.10
2023-03-08T15:53:07.587Z,1.27
2023-03-08T15:55:34.507Z,1.45
2023-03-08T15:58:01.232Z,0.88
2023-03-08T16:00:28.838Z,1.20
2023-03-08T16:02:55.940Z,0.95
2023-03-08T16:05:25.361Z,1.20
2023-03-08T16:08:03.368Z,0.98
2023-03-08T16:10:42.923Z,1.85
2023-03-08T16:13:10.172Z,1.23
2023-03-08T16:15:40.446Z,1.10
2023-03-08T16:18:07.448Z,1.15
2023-03-08T16:20:34.180Z,1.05
2023-03-08T16:23:01.136Z,0.90
2023-03-08T16:25:28.096Z,1.00
2023-03-08T16:27:55.062Z,0.98
2023-03-08T16:30:21.971Z,1.10
2023-03-08T16:32:52.808Z,1.50
2023-03-08T16:35:20.145Z,1.48
2023-03-08T16:37:47.628Z,1.10
2023-03-08T16:40:15.666Z,2.55
2023-03-08T16:42:42.851Z,1.70
2023-03-08T16:45:10.186Z,1.20
2023-03-08T16:47:37.143Z,1.38
2023-03-08T16:50:04.301Z,1.45
2023-03-08T16:52:31.278Z,1.15
2023-03-08T16:54:58.229Z,1.13
2023-03-08T16:57:25.097Z,1.13
2023-03-08T16:59:52.028Z,1.15
2023-03-08T17:02:21.340Z,1.35
2023-03-08T17:04:49.672Z,1.73
2023-03-08T17:07:17.352Z,1.20
2023-03-08T17:09:45.585Z,1.20
2023-03-08T17:12:12.586Z,1.48
2023-03-08T17:14:40.168Z,1.15
2023-03-08T17:17:07.156Z,1.30
2023-03-08T17:19:34.073Z,1.30
2023-03-08T17:22:01.012Z,1.25
2023-03-08T17:24:30.605Z,1.45
2023-03-08T17:26:57.546Z,1.17
2023-03-08T17:29:24.581Z,1.10
2023-03-08T17:31:51.722Z,1.00
2023-03-08T17:34:21.722Z,1.20
2023-03-08T17:36:48.653Z,1.20
2023-03-08T17:39:16.056Z,1.20
2023-03-08T17:41:44.742Z,1.85
2023-03-08T17:44:12.448Z,1.08
2023-03-08T17:46:39.662Z,1.42
2023-03-08T17:49:06.672Z,1.20
2023-03-08T17:51:34.052Z,1.45
2023-03-08T17:54:02.362Z,1.45
2023-03-08T17:56:31.519Z,1.10
2023-03-08T17:59:00.280Z,1.10
2023-03-08T18:01:29.395Z,1.40
2023-03-08T18:03:58.051Z,1.67
2023-03-08T18:06:31.071Z,1.73
2023-03-08T18:08:59.677Z,1.30
2023-03-08T18:11:27.522Z,1.20
2023-03-08T18:13:54.573Z,1.13
2023-03-08T18:16:23.534Z,1.15
2023-03-08T18:18:51.046Z,1.45
2023-03-08T18:21:19.551Z,1.27
2023-03-08T18:23:47.167Z,1.30
2023-03-08T18:26:16.005Z,1.67
2023-03-08T18:28:42.883Z,1.10
2023-03-08T18:31:11.800Z,1.23
2023-03-08T18:33:38.597Z,1.75
2023-03-08T18:36:05.941Z,1.38
2023-03-08T18:38:32.925Z,1.88
2023-03-08T18:40:59.977Z,1.63
2023-03-08T18:43:26.744Z,1.25
2023-03-08T18:45:55.750Z,1.30
2023-03-08T18:48:24.110Z,1.50
2023-03-08T18:50:51.050Z,1.30
2023-03-08T18:53:18.274Z,1.30
2023-03-08T18:56:00.178Z,1.65
2023-03-08T18:58:28.226Z,1.40
2023-03-08T19:00:59.141Z,1.70
2023-03-08T19:03:27.007Z,1.90
2023-03-08T19:05:54.202Z,1.92
2023-03-08T19:08:21.212Z,1.60
2023-03-08T19:10:48.377Z,1.88
2023-03-08T19:13:15.073Z,1.88
2023-03-08T19:15:42.328Z,1.65
2023-03-08T19:18:10.713Z,1.38
2023-03-08T19:20:39.692Z,1.80
2023-03-08T19:23:07.341Z,1.70
2023-03-08T19:25:55.778Z,1.38
2023-03-08T19:28:22.874Z,1.90
2023-03-08T19:30:49.778Z,1.80
2023-03-08T19:33:29.807Z,1.48
2023-03-08T19:35:57.555Z,2.53
2023-03-08T19:38:24.474Z,1.80
2023-03-08T19:40:51.337Z,1.80
2023-03-08T19:43:19.547Z,2.17
2023-03-08T19:45:50.302Z,1.80
2023-03-08T19:48:17.369Z,2.25
2023-03-08T19:50:47.426Z,3.08
2023-03-08T19:53:14.413Z,3.78
2023-03-08T19:55:52.569Z,4.90
2023-03-08T19:58:20.794Z,4.28
2023-03-08T20:00:48.327Z,3.38
2023-03-08T20:03:17.447Z,3.58
2023-03-08T20:05:46.922Z,3.47
2023-03-08T20:08:14.585Z,3.20
2023-03-08T20:10:41.615Z,5.10
2023-03-08T20:13:08.646Z,4.50
2023-03-08T20:15:35.699Z,3.10
2023-03-08T20:18:02.712Z,5.55
2023-03-08T20:20:29.858Z,5.85
2023-03-08T20:22:57.071Z,5.18
2023-03-08T20:25:24.480Z,5.38
2023-03-08T20:27:51.942Z,6.60
2023-03-08T20:30:18.910Z,6.20
2023-03-08T20:32:46.027Z,5.20
2023-03-08T20:35:15.258Z,5.25
2023-03-08T20:37:42.482Z,5.03
2023-03-08T20:40:13.893Z,5.63
2023-03-08T20:42:40.799Z,5.75
2023-03-08T20:45:08.146Z,5.53
2023-03-08T20:47:35.618Z,5.55
2023-03-08T20:50:02.687Z,5.70
2023-03-08T20:52:29.649Z,4.72
2023-03-08T20:54:56.890Z,4.93
2023-03-08T20:57:23.928Z,6.82
2023-03-08T20:59:50.937Z,8.50
2023-03-08T21:02:18.398Z,7.57
2023-03-08T21:04:45.206Z,6.55
2023-03-08T21:07:12.233Z,5.03
2023-03-08T21:09:39.257Z,4.72
2023-03-08T21:12:08.026Z,4.78
2023-03-08T21:14:34.818Z,3.58
2023-03-08T21:17:01.771Z,4.68
2023-03-08T21:19:28.666Z,4.18
2023-03-08T21:21:55.616Z,3.72
2023-03-08T21:24:23.413Z,4.40
2023-03-08T21:26:52.259Z,4.65
2023-03-08T21:29:21.390Z,6.40
2023-03-08T21:31:51.188Z,3.25
2023-03-08T21:34:19.279Z,3.08
2023-03-08T21:36:46.321Z,3.33
2023-03-08T21:39:13.802Z,3.22
2023-03-08T21:41:44.534Z,2.97
2023-03-08T21:44:14.827Z,2.88
2023-03-08T21:46:42.304Z,2.78
2023-03-08T21:49:16.852Z,3.22
2023-03-08T21:54:10.925Z,3.70
2023-03-08T21:56:37.892Z,4.07
2023-03-08T21:59:06.290Z,2.30
2023-03-08T22:01:34.095Z,3.35
2023-03-08T22:04:03.001Z,2.65
2023-03-08T22:06:30.470Z,3.15
2023-03-08T22:08:57.849Z,3.38
2023-03-08T22:11:26.098Z,3.88
2023-03-08T22:13:59.243Z,3.17
2023-03-08T22:16:27.613Z,3.25
2023-03-08T22:18:57.274Z,3.53
2023-03-08T22:21:24.343Z,3.42
2023-03-08T22:23:56.262Z,3.50
2023-03-08T22:26:25.192Z,2.80
2023-03-08T22:28:53.762Z,2.90
2023-03-08T22:31:23.322Z,3.22
2023-03-08T22:33:50.871Z,3.03
2023-03-08T22:36:19.413Z,3.53
2023-03-08T22:38:46.837Z,3.40
2023-03-08T22:41:17.430Z,3.10
2023-03-08T22:43:45.014Z,2.28
2023-03-08T22:46:24.612Z,2.50
2023-03-08T22:48:52.744Z,2.55
2023-03-08T22:51:21.698Z,2.60
2023-03-08T22:53:48.898Z,2.58
2023-03-08T22:56:23.361Z,3.53
2023-03-08T23:01:20.388Z,3.25
2023-03-08T23:03:49.822Z,2.95
2023-03-08T23:06:18.233Z,2.83
2023-03-08T23:08:45.991Z,2.75
2023-03-08T23:11:13.226Z,2.33
2023-03-08T23:13:41.367Z,2.40
2023-03-08T23:16:11.720Z,2.42
2023-03-08T23:18:38.868Z,2.85
2023-03-08T23:21:08.220Z,2.30
2023-03-08T23:23:35.476Z,2.33
2023-03-08T23:26:07.458Z,2.30
2023-03-08T23:28:35.849Z,2.15
2023-03-08T23:31:09.293Z,2.17
2023-03-08T23:33:36.251Z,2.27
2023-03-08T23:36:03.416Z,2.63
2023-03-08T23:38:30.769Z,2.90
2023-03-08T23:40:58.042Z,2.60
2023-03-08T23:43:25.512Z,2.88
2023-03-08T23:45:52.445Z,2.80
2023-03-08T23:48:19.400Z,2.95
2023-03-08T23:50:46.330Z,2.75
2023-03-08T23:53:13.165Z,3.00
2023-03-08T23:55:41.514Z,2.50
2023-03-08T23:58:08.801Z,2.38
